sensor_id;sensor_type;location;lat;lon;timestamp;pressure;altitude;pressure_sealevel;temperature;humidity
58821;BME280;70670;52.476;13.334;2024-03-29T00:01:46;99087.31;;;7.64;72.59
58821;BME280;70670;52.476;13.334;2024-03-29T00:04:12;99142.19;;;8.05;72.57
58821;BME280;70670;52.476;13.334;2024-03-29T00:06:37;99139.72;;;8.02;72.34
58821;BME280;70670;52.476;13.334;2024-03-29T00:09:03;99134.81;;;7.96;72.27
58821;BME280;70670;52.476;13.334;2024-03-29T00:11:28;99152.63;;;8.08;71.89
58821;BME280;70670;52.476;13.334;2024-03-29T00:13:54;99136.94;;;8.03;71.58
58821;BME280;70670;52.476;13.334;2024-03-29T00:16:20;99078.38;;;7.65;71.33
58821;BME280;70670;52.476;13.334;2024-03-29T00:18:48;99152.94;;;8.16;70.47
58821;BME280;70670;52.476;13.334;2024-03-29T00:21:13;99167.44;;;8.25;70.34
58821;BME280;70670;52.476;13.334;2024-03-29T00:23:40;99164.13;;;8.21;70.10
58821;BME280;70670;52.476;13.334;2024-03-29T00:26:06;99150.34;;;8.27;69.13
58821;BME280;70670;52.476;13.334;2024-03-29T00:28:32;99168.59;;;8.33;68.84
58821;BME280;70670;52.476;13.334;2024-03-29T00:30:58;99190.38;;;8.40;69.20
58821;BME280;70670;52.476;13.334;2024-03-29T00:33:24;99186.72;;;8.28;70.68
58821;BME280;70670;52.476;13.334;2024-03-29T00:35:49;99137.16;;;7.87;72.28
58821;BME280;70670;52.476;13.334;2024-03-29T00:38:15;99174.44;;;7.87;74.29
58821;BME280;70670;52.476;13.334;2024-03-29T00:40:40;99131.06;;;7.47;76.08
58821;BME280;70670;52.476;13.334;2024-03-29T00:43:06;99184.88;;;7.65;78.21
58821;BME280;70670;52.476;13.334;2024-03-29T00:45:32;99210.53;;;7.53;79.78
58821;BME280;70670;52.476;13.334;2024-03-29T00:47:58;99198.19;;;7.25;81.04
58821;BME280;70670;52.476;13.334;2024-03-29T00:50:24;99058.50;;;6.38;82.33
58821;BME280;70670;52.476;13.334;2024-03-29T00:52:49;99212.84;;;7.18;83.54
58821;BME280;70670;52.476;13.334;2024-03-29T00:55:15;99208.63;;;7.01;83.95
58821;BME280;70670;52.476;13.334;2024-03-29T00:57:41;99201.38;;;7.03;84.16
58821;BME280;70670;52.476;13.334;2024-03-29T01:00:07;99126.59;;;6.54;85.09
58821;BME280;70670;52.476;13.334;2024-03-29T01:02:33;99186.34;;;6.89;85.30
58821;BME280;70670;52.476;13.334;2024-03-29T01:04:58;99185.97;;;6.81;85.59
58821;BME280;70670;52.476;13.334;2024-03-29T01:07:24;99195.25;;;6.88;85.52
58821;BME280;70670;52.476;13.334;2024-03-29T01:09:50;99193.28;;;6.78;86.89
58821;BME280;70670;52.476;13.334;2024-03-29T01:12:16;99174.97;;;6.73;87.39
58821;BME280;70670;52.476;13.334;2024-03-29T01:14:41;99127.22;;;6.30;87.52
58821;BME280;70670;52.476;13.334;2024-03-29T01:17:07;99196.81;;;6.64;88.44
58821;BME280;70670;52.476;13.334;2024-03-29T01:19:32;99198.81;;;6.60;88.65
58821;BME280;70670;52.476;13.334;2024-03-29T01:21:58;99169.69;;;6.45;88.94
58821;BME280;70670;52.476;13.334;2024-03-29T01:24:24;99140.00;;;6.24;88.72
58821;BME280;70670;52.476;13.334;2024-03-29T01:26:49;99198.44;;;6.52;88.78
58821;BME280;70670;52.476;13.334;2024-03-29T01:29:15;99196.63;;;6.53;88.84
58821;BME280;70670;52.476;13.334;2024-03-29T01:31:41;99112.41;;;5.98;89.02
58821;BME280;70670;52.476;13.334;2024-03-29T01:34:06;99198.84;;;6.46;89.22
58821;BME280;70670;52.476;13.334;2024-03-29T01:36:32;99198.34;;;6.39;89.14
58821;BME280;70670;52.476;13.334;2024-03-29T01:38:57;99184.03;;;6.28;89.74
58821;BME280;70670;52.476;13.334;2024-03-29T01:41:24;99144.09;;;6.01;89.91
58821;BME280;70670;52.476;13.334;2024-03-29T01:43:52;99207.75;;;6.31;89.78
58821;BME280;70670;52.476;13.334;2024-03-29T01:46:22;99127.06;;;5.89;89.30
58821;BME280;70670;52.476;13.334;2024-03-29T01:48:50;99140.44;;;5.87;89.43
58821;BME280;70670;52.476;13.334;2024-03-29T01:51:16;99160.19;;;5.98;89.69
58821;BME280;70670;52.476;13.334;2024-03-29T01:53:43;99107.22;;;5.66;89.52
58821;BME280;70670;52.476;13.334;2024-03-29T01:56:09;99194.16;;;6.21;89.63
58821;BME280;70670;52.476;13.334;2024-03-29T01:58:34;99202.25;;;6.20;89.10
58821;BME280;70670;52.476;13.334;2024-03-29T02:01:00;99195.69;;;6.11;88.91
58821;BME280;70670;52.476;13.334;2024-03-29T02:03:27;99219.44;;;6.14;89.40
58821;BME280;70670;52.476;13.334;2024-03-29T02:05:53;99184.19;;;5.96;88.62
58821;BME280;70670;52.476;13.334;2024-03-29T02:08:20;99208.81;;;6.14;89.11
58821;BME280;70670;52.476;13.334;2024-03-29T02:10:47;99200.25;;;6.09;88.23
58821;BME280;70670;52.476;13.334;2024-03-29T02:13:13;99180.09;;;5.90;88.26
58821;BME280;70670;52.476;13.334;2024-03-29T02:15:39;99210.84;;;6.09;87.66
58821;BME280;70670;52.476;13.334;2024-03-29T02:18:06;99173.63;;;5.80;87.57
58821;BME280;70670;52.476;13.334;2024-03-29T02:20:32;99126.31;;;5.58;87.50
58821;BME280;70670;52.476;13.334;2024-03-29T02:23:04;99209.28;;;6.06;87.18
58821;BME280;70670;52.476;13.334;2024-03-29T02:25:31;99218.09;;;6.07;86.69
58821;BME280;70670;52.476;13.334;2024-03-29T02:27:57;99177.06;;;5.82;87.14
58821;BME280;70670;52.476;13.334;2024-03-29T02:30:24;99216.38;;;6.06;86.46
58821;BME280;70670;52.476;13.334;2024-03-29T02:32:50;99209.63;;;6.00;86.23
58821;BME280;70670;52.476;13.334;2024-03-29T02:35:16;99211.88;;;5.92;85.87
58821;BME280;70670;52.476;13.334;2024-03-29T02:37:41;99223.69;;;6.02;85.13
58821;BME280;70670;52.476;13.334;2024-03-29T02:40:08;99220.34;;;5.99;85.69
58821;BME280;70670;52.476;13.334;2024-03-29T02:42:34;99202.66;;;5.83;86.04
58821;BME280;70670;52.476;13.334;2024-03-29T02:45:02;99245.16;;;5.98;85.30
58821;BME280;70670;52.476;13.334;2024-03-29T02:47:28;99220.00;;;5.89;85.44
58821;BME280;70670;52.476;13.334;2024-03-29T02:49:54;99151.78;;;5.47;85.35
58821;BME280;70670;52.476;13.334;2024-03-29T02:52:19;99221.13;;;5.85;86.08
58821;BME280;70670;52.476;13.334;2024-03-29T02:54:45;99233.38;;;5.87;85.97
58821;BME280;70670;52.476;13.334;2024-03-29T02:57:10;99223.59;;;5.88;85.36
58821;BME280;70670;52.476;13.334;2024-03-29T02:59:36;99209.25;;;5.76;85.84
58821;BME280;70670;52.476;13.334;2024-03-29T03:02:02;99225.00;;;5.79;85.53
58821;BME280;70670;52.476;13.334;2024-03-29T03:04:28;99229.47;;;5.79;86.09
58821;BME280;70670;52.476;13.334;2024-03-29T03:06:55;99237.34;;;5.80;85.70
58821;BME280;70670;52.476;13.334;2024-03-29T03:09:31;99243.19;;;5.71;85.44
58821;BME280;70670;52.476;13.334;2024-03-29T03:12:15;99241.13;;;5.76;85.65
58821;BME280;70670;52.476;13.334;2024-03-29T03:14:41;99177.72;;;5.26;85.64
58821;BME280;70670;52.476;13.334;2024-03-29T03:17:07;99259.28;;;5.68;85.96
58821;BME280;70670;52.476;13.334;2024-03-29T03:19:33;99257.59;;;5.67;85.90
58821;BME280;70670;52.476;13.334;2024-03-29T03:21:58;99242.88;;;5.61;85.80
58821;BME280;70670;52.476;13.334;2024-03-29T03:24:24;99165.28;;;5.12;85.35
58821;BME280;70670;52.476;13.334;2024-03-29T03:26:51;99261.38;;;5.63;85.26
58821;BME280;70670;52.476;13.334;2024-03-29T03:29:16;99235.72;;;5.48;85.02
58821;BME280;70670;52.476;13.334;2024-03-29T03:31:42;99229.59;;;5.31;85.32
58821;BME280;70670;52.476;13.334;2024-03-29T03:34:08;99257.63;;;5.51;85.37
58821;BME280;70670;52.476;13.334;2024-03-29T03:36:33;99265.31;;;5.56;84.96
58821;BME280;70670;52.476;13.334;2024-03-29T03:38:59;99256.16;;;5.46;85.05
58821;BME280;70670;52.476;13.334;2024-03-29T03:41:24;99188.56;;;5.07;85.01
58821;BME280;70670;52.476;13.334;2024-03-29T03:43:50;99192.13;;;5.06;84.94
58821;BME280;70670;52.476;13.334;2024-03-29T03:46:16;99218.47;;;5.25;84.93
58821;BME280;70670;52.476;13.334;2024-03-29T03:48:42;99195.63;;;5.06;84.59
58821;BME280;70670;52.476;13.334;2024-03-29T03:51:07;99261.91;;;5.38;85.04
58821;BME280;70670;52.476;13.334;2024-03-29T03:53:34;99192.69;;;4.97;85.09
58821;BME280;70670;52.476;13.334;2024-03-29T03:56:00;99256.38;;;5.42;85.39
58821;BME280;70670;52.476;13.334;2024-03-29T03:58:26;99242.41;;;5.39;84.87
58821;BME280;70670;52.476;13.334;2024-03-29T04:00:51;99231.41;;;5.31;85.05
58821;BME280;70670;52.476;13.334;2024-03-29T04:03:17;99172.47;;;4.94;84.82
58821;BME280;70670;52.476;13.334;2024-03-29T04:05:43;99241.91;;;5.32;84.80
58821;BME280;70670;52.476;13.334;2024-03-29T04:08:09;99151.56;;;4.74;85.12
58821;BME280;70670;52.476;13.334;2024-03-29T04:10:38;99204.66;;;5.04;84.97
58821;BME280;70670;52.476;13.334;2024-03-29T04:13:04;99246.91;;;5.23;84.92
58821;BME280;70670;52.476;13.334;2024-03-29T04:15:30;99251.50;;;5.19;85.17
58821;BME280;70670;52.476;13.334;2024-03-29T04:17:59;99181.91;;;4.84;84.94
58821;BME280;70670;52.476;13.334;2024-03-29T04:20:26;99252.19;;;5.23;84.71
58821;BME280;70670;52.476;13.334;2024-03-29T04:22:51;99241.06;;;5.16;84.65
58821;BME280;70670;52.476;13.334;2024-03-29T04:25:17;99262.28;;;5.16;84.77
58821;BME280;70670;52.476;13.334;2024-03-29T04:27:43;99243.38;;;5.06;84.43
58821;BME280;70670;52.476;13.334;2024-03-29T04:30:08;99257.16;;;5.13;84.43
58821;BME280;70670;52.476;13.334;2024-03-29T04:32:34;99256.28;;;5.12;84.30
58821;BME280;70670;52.476;13.334;2024-03-29T04:35:01;99220.47;;;5.05;84.07
58821;BME280;70670;52.476;13.334;2024-03-29T04:37:27;99236.09;;;5.10;84.07
58821;BME280;70670;52.476;13.334;2024-03-29T04:39:53;99222.59;;;4.99;84.09
58821;BME280;70670;52.476;13.334;2024-03-29T04:42:18;99253.22;;;5.04;84.55
58821;BME280;70670;52.476;13.334;2024-03-29T04:44:44;99254.75;;;5.08;84.37
58821;BME280;70670;52.476;13.334;2024-03-29T04:47:10;99207.38;;;4.86;83.87
58821;BME280;70670;52.476;13.334;2024-03-29T04:49:35;99246.97;;;5.05;83.93
58821;BME280;70670;52.476;13.334;2024-03-29T04:52:05;99182.84;;;4.67;84.17
58821;BME280;70670;52.476;13.334;2024-03-29T04:54:34;99224.66;;;4.93;84.14
58821;BME280;70670;52.476;13.334;2024-03-29T04:57:00;99232.59;;;4.93;83.76
58821;BME280;70670;52.476;13.334;2024-03-29T04:59:34;99255.78;;;5.06;84.05
58821;BME280;70670;52.476;13.334;2024-03-29T05:02:00;99106.69;;;4.23;83.35
58821;BME280;70670;52.476;13.334;2024-03-29T05:04:26;99235.09;;;4.97;83.69
58821;BME280;70670;52.476;13.334;2024-03-29T05:09:18;99253.28;;;5.03;83.51
58821;BME280;70670;52.476;13.334;2024-03-29T05:11:44;99242.09;;;4.98;83.48
58821;BME280;70670;52.476;13.334;2024-03-29T05:14:11;99253.91;;;5.08;83.31
58821;BME280;70670;52.476;13.334;2024-03-29T05:16:43;99255.63;;;5.09;83.04
58821;BME280;70670;52.476;13.334;2024-03-29T05:19:09;99258.25;;;5.09;82.99
58821;BME280;70670;52.476;13.334;2024-03-29T05:21:36;99240.22;;;5.00;83.11
58821;BME280;70670;52.476;13.334;2024-03-29T05:24:01;99188.06;;;4.68;83.02
58821;BME280;70670;52.476;13.334;2024-03-29T05:26:27;99269.47;;;5.14;82.90
58821;BME280;70670;52.476;13.334;2024-03-29T05:28:52;99198.72;;;4.67;82.53
58821;BME280;70670;52.476;13.334;2024-03-29T05:31:21;99274.59;;;5.17;82.28
58821;BME280;70670;52.476;13.334;2024-03-29T05:33:47;99257.94;;;5.15;82.26
58821;BME280;70670;52.476;13.334;2024-03-29T05:36:13;99280.69;;;5.19;82.33
58821;BME280;70670;52.476;13.334;2024-03-29T05:38:39;99277.16;;;5.18;82.34
58821;BME280;70670;52.476;13.334;2024-03-29T05:41:05;99259.38;;;5.21;82.21
58821;BME280;70670;52.476;13.334;2024-03-29T05:43:31;99248.75;;;5.21;81.93
58821;BME280;70670;52.476;13.334;2024-03-29T05:45:57;99220.38;;;5.07;81.67
58821;BME280;70670;52.476;13.334;2024-03-29T05:48:23;99231.47;;;5.13;82.00
58821;BME280;70670;52.476;13.334;2024-03-29T05:50:49;99240.72;;;5.22;81.93
58821;BME280;70670;52.476;13.334;2024-03-29T05:53:15;99249.28;;;5.27;81.42
58821;BME280;70670;52.476;13.334;2024-03-29T05:55:40;99269.19;;;5.34;81.07
58821;BME280;70670;52.476;13.334;2024-03-29T05:58:06;99267.31;;;5.36;80.65
58821;BME280;70670;52.476;13.334;2024-03-29T06:00:32;99261.44;;;5.31;80.95
58821;BME280;70670;52.476;13.334;2024-03-29T06:03:01;99276.72;;;5.42;80.85
58821;BME280;70670;52.476;13.334;2024-03-29T06:05:30;99269.63;;;5.42;81.05
58821;BME280;70670;52.476;13.334;2024-03-29T06:07:55;99263.53;;;5.40;80.58
58821;BME280;70670;52.476;13.334;2024-03-29T06:10:21;99264.75;;;5.51;80.27
58821;BME280;70670;52.476;13.334;2024-03-29T06:12:47;99241.06;;;5.32;79.72
58821;BME280;70670;52.476;13.334;2024-03-29T06:15:13;99301.94;;;5.65;79.42
58821;BME280;70670;52.476;13.334;2024-03-29T06:17:57;99294.91;;;5.64;78.91
58821;BME280;70670;52.476;13.334;2024-03-29T06:20:24;99212.16;;;5.27;78.71
58821;BME280;70670;52.476;13.334;2024-03-29T06:22:49;99294.47;;;5.72;78.05
58821;BME280;70670;52.476;13.334;2024-03-29T06:25:15;99299.81;;;5.86;78.06
58821;BME280;70670;52.476;13.334;2024-03-29T06:27:41;99242.56;;;5.52;77.55
58821;BME280;70670;52.476;13.334;2024-03-29T06:30:09;99294.72;;;5.83;77.31
58821;BME280;70670;52.476;13.334;2024-03-29T06:32:35;99314.03;;;6.01;77.14
58821;BME280;70670;52.476;13.334;2024-03-29T06:35:02;99310.25;;;6.05;76.96
58821;BME280;70670;52.476;13.334;2024-03-29T06:37:28;99334.56;;;6.13;76.92
58821;BME280;70670;52.476;13.334;2024-03-29T06:39:53;99299.47;;;6.08;76.02
58821;BME280;70670;52.476;13.334;2024-03-29T06:42:19;99301.50;;;6.19;75.97
58821;BME280;70670;52.476;13.334;2024-03-29T06:44:45;99294.81;;;6.11;75.90
58821;BME280;70670;52.476;13.334;2024-03-29T06:47:11;99255.28;;;5.91;75.37
58821;BME280;70670;52.476;13.334;2024-03-29T06:49:37;99322.84;;;6.31;75.37
58821;BME280;70670;52.476;13.334;2024-03-29T06:52:02;99330.25;;;6.40;75.36
58821;BME280;70670;52.476;13.334;2024-03-29T06:54:28;99345.94;;;6.45;74.82
58821;BME280;70670;52.476;13.334;2024-03-29T06:56:55;99293.97;;;6.25;74.79
58821;BME280;70670;52.476;13.334;2024-03-29T06:59:21;99340.16;;;6.53;74.64
58821;BME280;70670;52.476;13.334;2024-03-29T07:01:46;99318.03;;;6.38;74.33
58821;BME280;70670;52.476;13.334;2024-03-29T07:04:15;99323.66;;;6.62;73.65
58821;BME280;70670;52.476;13.334;2024-03-29T07:06:41;99340.38;;;6.78;73.63
58821;BME280;70670;52.476;13.334;2024-03-29T07:09:10;99331.44;;;6.79;72.79
58821;BME280;70670;52.476;13.334;2024-03-29T07:11:35;99330.47;;;6.80;72.55
58821;BME280;70670;52.476;13.334;2024-03-29T07:14:01;99342.09;;;6.94;72.43
58821;BME280;70670;52.476;13.334;2024-03-29T07:16:27;99339.44;;;6.94;71.92
58821;BME280;70670;52.476;13.334;2024-03-29T07:18:53;99366.84;;;7.08;71.33
58821;BME280;70670;52.476;13.334;2024-03-29T07:21:18;99364.13;;;7.10;70.93
58821;BME280;70670;52.476;13.334;2024-03-29T07:23:44;99306.94;;;6.74;70.75
58821;BME280;70670;52.476;13.334;2024-03-29T07:26:10;99354.69;;;7.04;70.35
58821;BME280;70670;52.476;13.334;2024-03-29T07:28:37;99385.56;;;7.35;70.00
58821;BME280;70670;52.476;13.334;2024-03-29T07:31:06;99377.94;;;7.44;69.95
58821;BME280;70670;52.476;13.334;2024-03-29T07:33:36;99369.41;;;7.38;69.37
58821;BME280;70670;52.476;13.334;2024-03-29T07:36:01;99369.03;;;7.45;68.55
58821;BME280;70670;52.476;13.334;2024-03-29T07:38:29;99353.44;;;7.38;68.60
58821;BME280;70670;52.476;13.334;2024-03-29T07:40:55;99397.03;;;7.64;68.39
58821;BME280;70670;52.476;13.334;2024-03-29T07:43:22;99394.94;;;7.70;68.72
58821;BME280;70670;52.476;13.334;2024-03-29T07:45:47;99406.13;;;7.75;67.74
58821;BME280;70670;52.476;13.334;2024-03-29T07:48:17;99379.50;;;7.75;67.11
58821;BME280;70670;52.476;13.334;2024-03-29T07:50:44;99366.09;;;7.76;66.69
58821;BME280;70670;52.476;13.334;2024-03-29T07:53:10;99399.31;;;7.98;67.13
58821;BME280;70670;52.476;13.334;2024-03-29T07:55:37;99365.78;;;7.81;66.73
58821;BME280;70670;52.476;13.334;2024-03-29T07:58:03;99351.28;;;7.72;66.59
58821;BME280;70670;52.476;13.334;2024-03-29T08:00:33;99425.50;;;8.18;66.04
58821;BME280;70670;52.476;13.334;2024-03-29T08:02:59;99425.84;;;8.26;65.90
58821;BME280;70670;52.476;13.334;2024-03-29T08:05:26;99432.03;;;8.27;65.97
58821;BME280;70670;52.476;13.334;2024-03-29T08:07:52;99440.88;;;8.27;66.32
58821;BME280;70670;52.476;13.334;2024-03-29T08:10:18;99418.28;;;8.20;66.77
58821;BME280;70670;52.476;13.334;2024-03-29T08:12:44;99431.94;;;8.28;66.93
58821;BME280;70670;52.476;13.334;2024-03-29T08:15:09;99429.94;;;8.32;67.53
58821;BME280;70670;52.476;13.334;2024-03-29T08:17:36;99420.78;;;8.36;67.72
58821;BME280;70670;52.476;13.334;2024-03-29T08:20:02;99403.03;;;8.35;68.05
58821;BME280;70670;52.476;13.334;2024-03-29T08:22:28;99330.09;;;7.83;68.89
58821;BME280;70670;52.476;13.334;2024-03-29T08:24:54;99345.84;;;8.01;68.80
58821;BME280;70670;52.476;13.334;2024-03-29T08:27:20;99386.41;;;8.31;68.93
58821;BME280;70670;52.476;13.334;2024-03-29T08:29:45;99375.44;;;8.36;69.41
58821;BME280;70670;52.476;13.334;2024-03-29T08:32:11;99374.00;;;8.45;69.54
58821;BME280;70670;52.476;13.334;2024-03-29T08:34:38;99360.03;;;8.54;69.29
58821;BME280;70670;52.476;13.334;2024-03-29T08:37:04;99297.03;;;8.13;68.84
58821;BME280;70670;52.476;13.334;2024-03-29T08:39:30;99365.38;;;8.67;69.29
58821;BME280;70670;52.476;13.334;2024-03-29T08:41:58;99342.66;;;8.61;68.71
58821;BME280;70670;52.476;13.334;2024-03-29T08:44:24;99346.41;;;8.71;68.88
58821;BME280;70670;52.476;13.334;2024-03-29T08:46:50;99353.00;;;8.78;68.67
58821;BME280;70670;52.476;13.334;2024-03-29T08:49:16;99370.81;;;8.91;67.23
58821;BME280;70670;52.476;13.334;2024-03-29T08:51:42;99364.97;;;8.85;67.58
58821;BME280;70670;52.476;13.334;2024-03-29T08:54:08;99370.53;;;8.95;67.33
58821;BME280;70670;52.476;13.334;2024-03-29T08:56:34;99372.88;;;9.00;67.44
58821;BME280;70670;52.476;13.334;2024-03-29T08:59:05;99366.66;;;9.12;66.65
58821;BME280;70670;52.476;13.334;2024-03-29T09:01:35;99392.03;;;9.30;66.31
58821;BME280;70670;52.476;13.334;2024-03-29T09:04:01;99397.16;;;9.33;66.50
58821;BME280;70670;52.476;13.334;2024-03-29T09:06:27;99329.28;;;9.12;66.77
58821;BME280;70670;52.476;13.334;2024-03-29T09:08:53;99395.84;;;9.52;66.14
58821;BME280;70670;52.476;13.334;2024-03-29T09:11:18;99311.28;;;9.03;64.93
58821;BME280;70670;52.476;13.334;2024-03-29T09:13:44;99395.66;;;9.55;65.26
58821;BME280;70670;52.476;13.334;2024-03-29T09:16:10;99387.50;;;9.56;65.21
58821;BME280;70670;52.476;13.334;2024-03-29T09:18:35;99406.41;;;9.66;65.27
58821;BME280;70670;52.476;13.334;2024-03-29T09:21:01;99412.03;;;9.74;64.60
58821;BME280;70670;52.476;13.334;2024-03-29T09:23:28;99403.91;;;9.76;64.84
58821;BME280;70670;52.476;13.334;2024-03-29T09:25:55;99348.47;;;9.43;64.46
58821;BME280;70670;52.476;13.334;2024-03-29T09:28:24;99395.78;;;9.77;64.00
58821;BME280;70670;52.476;13.334;2024-03-29T09:30:50;99416.78;;;9.95;64.13
58821;BME280;70670;52.476;13.334;2024-03-29T09:33:16;99431.28;;;10.03;63.67
58821;BME280;70670;52.476;13.334;2024-03-29T09:35:42;99404.06;;;9.85;62.92
58821;BME280;70670;52.476;13.334;2024-03-29T09:38:07;99410.31;;;9.86;63.11
58821;BME280;70670;52.476;13.334;2024-03-29T09:40:33;99352.66;;;9.58;63.45
58821;BME280;70670;52.476;13.334;2024-03-29T09:43:00;99430.09;;;10.07;63.89
58821;BME280;70670;52.476;13.334;2024-03-29T09:45:35;99417.38;;;10.11;63.25
58821;BME280;70670;52.476;13.334;2024-03-29T09:48:07;99406.31;;;10.16;62.90
58821;BME280;70670;52.476;13.334;2024-03-29T09:50:37;99398.19;;;10.17;61.91
58821;BME280;70670;52.476;13.334;2024-03-29T09:53:05;99411.09;;;10.23;61.69
58821;BME280;70670;52.476;13.334;2024-03-29T09:55:33;99394.22;;;10.23;61.95
58821;BME280;70670;52.476;13.334;2024-03-29T09:58:00;99411.41;;;10.31;61.32
58821;BME280;70670;52.476;13.334;2024-03-29T10:00:27;99426.13;;;10.37;61.71
58821;BME280;70670;52.476;13.334;2024-03-29T10:02:55;99401.78;;;10.29;60.94
58821;BME280;70670;52.476;13.334;2024-03-29T10:05:22;99420.34;;;10.43;61.55
58821;BME280;70670;52.476;13.334;2024-03-29T10:07:49;99409.22;;;10.37;61.05
58821;BME280;70670;52.476;13.334;2024-03-29T10:10:15;99401.13;;;10.38;62.03
58821;BME280;70670;52.476;13.334;2024-03-29T10:12:41;99337.13;;;10.00;62.53
58821;BME280;70670;52.476;13.334;2024-03-29T10:15:07;99401.22;;;10.37;62.87
58821;BME280;70670;52.476;13.334;2024-03-29T10:17:50;99398.88;;;10.32;63.34
58821;BME280;70670;52.476;13.334;2024-03-29T10:20:17;99386.84;;;10.26;64.98
58821;BME280;70670;52.476;13.334;2024-03-29T10:22:43;99380.22;;;10.19;66.03
58821;BME280;70670;52.476;13.334;2024-03-29T10:25:13;99361.22;;;10.11;66.96
58821;BME280;70670;52.476;13.334;2024-03-29T10:27:39;99357.28;;;10.04;66.71
58821;BME280;70670;52.476;13.334;2024-03-29T10:30:07;99307.38;;;9.56;67.05
58821;BME280;70670;52.476;13.334;2024-03-29T10:32:34;99355.19;;;9.96;67.72
58821;BME280;70670;52.476;13.334;2024-03-29T10:35:02;99362.38;;;9.96;67.99
58821;BME280;70670;52.476;13.334;2024-03-29T10:37:28;99293.31;;;9.54;69.10
58821;BME280;70670;52.476;13.334;2024-03-29T10:39:58;99323.34;;;9.69;69.03
58821;BME280;70670;52.476;13.334;2024-03-29T10:42:24;99351.09;;;9.79;68.99
58821;BME280;70670;52.476;13.334;2024-03-29T10:44:51;99367.28;;;9.89;69.56
58821;BME280;70670;52.476;13.334;2024-03-29T10:47:19;99339.91;;;9.74;70.17
58821;BME280;70670;52.476;13.334;2024-03-29T10:49:50;99361.56;;;9.82;71.63
58821;BME280;70670;52.476;13.334;2024-03-29T10:52:21;99336.38;;;9.74;72.31
58821;BME280;70670;52.476;13.334;2024-03-29T10:54:50;99292.03;;;9.47;72.58
58821;BME280;70670;52.476;13.334;2024-03-29T10:57:25;99353.00;;;9.90;72.64
58821;BME280;70670;52.476;13.334;2024-03-29T11:00:02;99238.56;;;9.12;73.13
58821;BME280;70670;52.476;13.334;2024-03-29T11:02:39;99180.16;;;8.83;73.54
58821;BME280;70670;52.476;13.334;2024-03-29T11:05:10;99349.75;;;9.98;73.10
58821;BME280;70670;52.476;13.334;2024-03-29T11:07:40;99310.34;;;9.89;73.45
58821;BME280;70670;52.476;13.334;2024-03-29T11:10:11;99324.16;;;10.06;72.12
58821;BME280;70670;52.476;13.334;2024-03-29T11:13:02;99328.13;;;10.25;72.32
58821;BME280;70670;52.476;13.334;2024-03-29T11:15:31;99325.34;;;10.26;71.26
58821;BME280;70670;52.476;13.334;2024-03-29T11:18:00;99284.28;;;10.03;71.82
58821;BME280;70670;52.476;13.334;2024-03-29T11:20:27;99309.34;;;10.38;71.26
58821;BME280;70670;52.476;13.334;2024-03-29T11:23:11;99283.81;;;10.33;71.15
58821;BME280;70670;52.476;13.334;2024-03-29T11:25:45;99290.38;;;10.52;70.74
58821;BME280;70670;52.476;13.334;2024-03-29T11:28:13;99286.50;;;10.56;70.52
58821;BME280;70670;52.476;13.334;2024-03-29T11:30:41;99240.41;;;10.30;70.25
58821;BME280;70670;52.476;13.334;2024-03-29T11:33:06;99255.84;;;10.49;70.36
58821;BME280;70670;52.476;13.334;2024-03-29T11:35:32;99229.34;;;10.34;69.88
58821;BME280;70670;52.476;13.334;2024-03-29T11:37:58;99300.38;;;10.72;70.57
58821;BME280;70670;52.476;13.334;2024-03-29T11:40:29;99287.13;;;10.71;70.07
58821;BME280;70670;52.476;13.334;2024-03-29T11:42:55;99238.34;;;10.33;70.01
58821;BME280;70670;52.476;13.334;2024-03-29T11:45:26;99296.13;;;10.70;69.86
58821;BME280;70670;52.476;13.334;2024-03-29T11:47:54;99281.91;;;10.69;69.35
58821;BME280;70670;52.476;13.334;2024-03-29T11:50:21;99298.91;;;10.68;69.28
58821;BME280;70670;52.476;13.334;2024-03-29T11:52:46;99297.97;;;10.69;69.27
58821;BME280;70670;52.476;13.334;2024-03-29T11:55:12;99293.69;;;10.67;70.10
58821;BME280;70670;52.476;13.334;2024-03-29T11:57:38;99301.59;;;10.68;70.30
58821;BME280;70670;52.476;13.334;2024-03-29T12:00:06;99316.34;;;10.74;70.78
58821;BME280;70670;52.476;13.334;2024-03-29T12:02:32;99229.34;;;10.34;70.99
58821;BME280;70670;52.476;13.334;2024-03-29T12:04:58;99302.34;;;10.70;71.17
58821;BME280;70670;52.476;13.334;2024-03-29T12:07:24;99245.38;;;10.34;70.93
58821;BME280;70670;52.476;13.334;2024-03-29T12:09:50;99302.56;;;10.67;71.06
58821;BME280;70670;52.476;13.334;2024-03-29T12:12:15;99304.50;;;10.76;70.82
58821;BME280;70670;52.476;13.334;2024-03-29T12:14:43;99309.03;;;10.76;71.04
58821;BME280;70670;52.476;13.334;2024-03-29T12:17:12;99299.16;;;10.76;71.47
58821;BME280;70670;52.476;13.334;2024-03-29T12:19:38;99281.66;;;10.72;70.67
58821;BME280;70670;52.476;13.334;2024-03-29T12:22:07;99293.09;;;10.86;71.62
58821;BME280;70670;52.476;13.334;2024-03-29T12:24:34;99295.50;;;10.89;70.80
58821;BME280;70670;52.476;13.334;2024-03-29T12:27:00;99285.56;;;11.02;70.64
58821;BME280;70670;52.476;13.334;2024-03-29T12:29:25;99268.50;;;11.14;68.03
58821;BME280;70670;52.476;13.334;2024-03-29T12:32:01;99168.31;;;10.73;67.38
58821;BME280;70670;52.476;13.334;2024-03-29T12:34:27;99223.22;;;11.22;66.56
58821;BME280;70670;52.476;13.334;2024-03-29T12:36:53;99232.16;;;11.44;66.10
58821;BME280;70670;52.476;13.334;2024-03-29T12:39:18;99199.06;;;11.45;65.84
58821;BME280;70670;52.476;13.334;2024-03-29T12:41:46;99237.16;;;11.80;64.86
58821;BME280;70670;52.476;13.334;2024-03-29T12:44:12;99203.63;;;11.86;64.39
58821;BME280;70670;52.476;13.334;2024-03-29T12:46:39;99237.66;;;12.27;63.34
58821;BME280;70670;52.476;13.334;2024-03-29T12:49:06;99240.72;;;12.44;62.05
58821;BME280;70670;52.476;13.334;2024-03-29T12:51:32;99170.03;;;12.24;61.21
58821;BME280;70670;52.476;13.334;2024-03-29T12:54:01;99247.22;;;12.72;60.81
58821;BME280;70670;52.476;13.334;2024-03-29T12:56:29;99262.25;;;12.84;59.61
58821;BME280;70670;52.476;13.334;2024-03-29T12:58:55;99246.25;;;12.83;59.88